sensor_id;sensor_type;location;lat;lon;timestamp;temperature;humidity
6627;DHT22;3349;49.830;8.748;2022-07-29T00:01:24;20.10;49.60
6627;DHT22;3349;49.830;8.748;2022-07-29T00:03:51;20.10;49.80
6627;DHT22;3349;49.830;8.748;2022-07-29T00:06:17;20.00;50.00
6627;DHT22;3349;49.830;8.748;2022-07-29T00:08:47;20.00;50.40
6627;DHT22;3349;49.830;8.748;2022-07-29T00:11:14;19.90;50.70
6627;DHT22;3349;49.830;8.748;2022-07-29T00:13:41;19.90;50.70
6627;DHT22;3349;49.830;8.748;2022-07-29T00:16:08;19.80;50.50
6627;DHT22;3349;49.830;8.748;2022-07-29T00:18:34;19.80;50.10
6627;DHT22;3349;49.830;8.748;2022-07-29T00:21:01;19.70;49.80
6627;DHT22;3349;49.830;8.748;2022-07-29T00:23:28;19.70;50.00
6627;DHT22;3349;49.830;8.748;2022-07-29T00:25:56;19.70;50.50
6627;DHT22;3349;49.830;8.748;2022-07-29T00:28:23;19.70;51.10
6627;DHT22;3349;49.830;8.748;2022-07-29T00:30:49;19.60;50.80
6627;DHT22;3349;49.830;8.748;2022-07-29T00:33:16;19.60;51.00
6627;DHT22;3349;49.830;8.748;2022-07-29T00:35:43;19.50;51.30
6627;DHT22;3349;49.830;8.748;2022-07-29T00:38:09;19.50;51.40
6627;DHT22;3349;49.830;8.748;2022-07-29T00:40:36;19.40;52.00
6627;DHT22;3349;49.830;8.748;2022-07-29T00:43:04;19.30;52.20
6627;DHT22;3349;49.830;8.748;2022-07-29T00:45:31;19.30;52.30
6627;DHT22;3349;49.830;8.748;2022-07-29T00:47:57;19.20;52.60
6627;DHT22;3349;49.830;8.748;2022-07-29T00:50:25;19.20;52.80
6627;DHT22;3349;49.830;8.748;2022-07-29T00:52:52;19.10;53.10
6627;DHT22;3349;49.830;8.748;2022-07-29T00:55:19;19.10;53.60
6627;DHT22;3349;49.830;8.748;2022-07-29T00:57:46;19.20;53.90
6627;DHT22;3349;49.830;8.748;2022-07-29T01:00:17;19.20;54.20
6627;DHT22;3349;49.830;8.748;2022-07-29T01:02:44;19.20;54.60
6627;DHT22;3349;49.830;8.748;2022-07-29T01:05:14;19.20;54.80
6627;DHT22;3349;49.830;8.748;2022-07-29T01:07:41;19.20;55.40
6627;DHT22;3349;49.830;8.748;2022-07-29T01:10:09;19.20;55.40
6627;DHT22;3349;49.830;8.748;2022-07-29T01:12:38;19.20;55.70
6627;DHT22;3349;49.830;8.748;2022-07-29T01:15:07;19.20;55.80
6627;DHT22;3349;49.830;8.748;2022-07-29T01:17:39;19.10;56.10
6627;DHT22;3349;49.830;8.748;2022-07-29T01:20:14;19.10;56.10
6627;DHT22;3349;49.830;8.748;2022-07-29T01:23:11;19.10;56.10
6627;DHT22;3349;49.830;8.748;2022-07-29T01:26:08;19.00;55.60
6627;DHT22;3349;49.830;8.748;2022-07-29T01:31:42;18.90;55.70
6627;DHT22;3349;49.830;8.748;2022-07-29T01:34:16;18.90;56.00
6627;DHT22;3349;49.830;8.748;2022-07-29T01:36:51;18.80;55.20
6627;DHT22;3349;49.830;8.748;2022-07-29T01:39:27;18.80;52.70
6627;DHT22;3349;49.830;8.748;2022-07-29T01:41:58;18.90;51.10
6627;DHT22;3349;49.830;8.748;2022-07-29T01:44:32;18.90;50.10
6627;DHT22;3349;49.830;8.748;2022-07-29T01:47:05;18.90;49.60
6627;DHT22;3349;49.830;8.748;2022-07-29T01:49:36;19.00;49.10
6627;DHT22;3349;49.830;8.748;2022-07-29T01:52:08;19.00;48.60
6627;DHT22;3349;49.830;8.748;2022-07-29T01:54:39;19.00;48.20
6627;DHT22;3349;49.830;8.748;2022-07-29T01:57:09;19.00;47.80
6627;DHT22;3349;49.830;8.748;2022-07-29T01:59:40;19.00;47.80
6627;DHT22;3349;49.830;8.748;2022-07-29T02:02:10;19.00;47.80
6627;DHT22;3349;49.830;8.748;2022-07-29T02:04:39;19.00;47.70
6627;DHT22;3349;49.830;8.748;2022-07-29T02:07:07;19.00;47.40
6627;DHT22;3349;49.830;8.748;2022-07-29T02:09:36;19.00;46.90
6627;DHT22;3349;49.830;8.748;2022-07-29T02:12:06;19.10;46.50
6627;DHT22;3349;49.830;8.748;2022-07-29T02:14:36;19.10;46.50
6627;DHT22;3349;49.830;8.748;2022-07-29T02:17:04;19.10;46.60
6627;DHT22;3349;49.830;8.748;2022-07-29T02:19:33;19.10;46.50
6627;DHT22;3349;49.830;8.748;2022-07-29T02:22:02;19.20;46.30
6627;DHT22;3349;49.830;8.748;2022-07-29T02:24:30;19.20;47.10
6627;DHT22;3349;49.830;8.748;2022-07-29T02:26:57;19.20;47.30
6627;DHT22;3349;49.830;8.748;2022-07-29T02:29:27;19.10;47.10
6627;DHT22;3349;49.830;8.748;2022-07-29T02:31:55;19.10;46.70
6627;DHT22;3349;49.830;8.748;2022-07-29T02:34:25;19.10;46.60
6627;DHT22;3349;49.830;8.748;2022-07-29T02:36:52;19.10;46.70
6627;DHT22;3349;49.830;8.748;2022-07-29T02:39:21;19.10;47.20
6627;DHT22;3349;49.830;8.748;2022-07-29T02:41:50;19.10;47.60
6627;DHT22;3349;49.830;8.748;2022-07-29T02:44:19;19.00;47.80
6627;DHT22;3349;49.830;8.748;2022-07-29T02:46:50;19.00;47.80
6627;DHT22;3349;49.830;8.748;2022-07-29T02:49:26;19.00;47.80
6627;DHT22;3349;49.830;8.748;2022-07-29T02:52:01;19.00;47.80
6627;DHT22;3349;49.830;8.748;2022-07-29T02:54:44;18.80;48.00
6627;DHT22;3349;49.830;8.748;2022-07-29T02:57:18;18.80;48.20
6627;DHT22;3349;49.830;8.748;2022-07-29T02:59:48;18.70;48.40
6627;DHT22;3349;49.830;8.748;2022-07-29T03:02:16;18.60;48.40
6627;DHT22;3349;49.830;8.748;2022-07-29T03:04:46;18.50;48.40
6627;DHT22;3349;49.830;8.748;2022-07-29T03:07:18;18.50;49.40
6627;DHT22;3349;49.830;8.748;2022-07-29T03:09:47;18.40;49.00
6627;DHT22;3349;49.830;8.748;2022-07-29T03:12:14;18.40;49.30
6627;DHT22;3349;49.830;8.748;2022-07-29T03:14:42;18.40;48.90
6627;DHT22;3349;49.830;8.748;2022-07-29T03:17:09;18.30;49.10
6627;DHT22;3349;49.830;8.748;2022-07-29T03:19:36;18.30;49.30
6627;DHT22;3349;49.830;8.748;2022-07-29T03:22:05;18.20;50.10
6627;DHT22;3349;49.830;8.748;2022-07-29T03:24:33;18.10;50.70
6627;DHT22;3349;49.830;8.748;2022-07-29T03:27:01;18.10;50.80
6627;DHT22;3349;49.830;8.748;2022-07-29T03:29:28;18.00;50.60
6627;DHT22;3349;49.830;8.748;2022-07-29T03:31:55;18.00;50.90
6627;DHT22;3349;49.830;8.748;2022-07-29T03:34:22;18.00;50.10
6627;DHT22;3349;49.830;8.748;2022-07-29T03:36:49;17.90;50.20
6627;DHT22;3349;49.830;8.748;2022-07-29T03:39:21;17.90;50.20
6627;DHT22;3349;49.830;8.748;2022-07-29T03:41:53;17.90;50.80
6627;DHT22;3349;49.830;8.748;2022-07-29T03:44:21;17.90;50.70
6627;DHT22;3349;49.830;8.748;2022-07-29T03:46:50;17.80;51.10
6627;DHT22;3349;49.830;8.748;2022-07-29T03:49:18;17.80;51.80
6627;DHT22;3349;49.830;8.748;2022-07-29T03:51:46;17.70;52.00
6627;DHT22;3349;49.830;8.748;2022-07-29T03:54:14;17.70;52.20
6627;DHT22;3349;49.830;8.748;2022-07-29T03:56:45;17.60;52.50
6627;DHT22;3349;49.830;8.748;2022-07-29T03:59:13;17.60;52.70
6627;DHT22;3349;49.830;8.748;2022-07-29T04:01:42;17.50;53.20
6627;DHT22;3349;49.830;8.748;2022-07-29T04:04:09;17.40;53.60
6627;DHT22;3349;49.830;8.748;2022-07-29T04:06:40;17.40;54.10
6627;DHT22;3349;49.830;8.748;2022-07-29T04:09:07;17.30;54.50
6627;DHT22;3349;49.830;8.748;2022-07-29T04:11:35;17.30;54.50
6627;DHT22;3349;49.830;8.748;2022-07-29T04:14:03;17.20;55.00
6627;DHT22;3349;49.830;8.748;2022-07-29T04:16:30;17.20;55.60
6627;DHT22;3349;49.830;8.748;2022-07-29T04:18:57;17.20;55.10
6627;DHT22;3349;49.830;8.748;2022-07-29T04:21:24;17.20;55.10
6627;DHT22;3349;49.830;8.748;2022-07-29T04:23:51;17.20;55.30
6627;DHT22;3349;49.830;8.748;2022-07-29T04:26:19;17.10;55.80
6627;DHT22;3349;49.830;8.748;2022-07-29T04:28:46;17.10;56.60
6627;DHT22;3349;49.830;8.748;2022-07-29T04:31:15;17.10;58.00
6627;DHT22;3349;49.830;8.748;2022-07-29T04:33:42;17.10;58.40
6627;DHT22;3349;49.830;8.748;2022-07-29T04:36:10;17.00;58.70
6627;DHT22;3349;49.830;8.748;2022-07-29T04:38:38;17.00;59.40
6627;DHT22;3349;49.830;8.748;2022-07-29T04:41:06;17.10;59.40
6627;DHT22;3349;49.830;8.748;2022-07-29T04:43:34;17.00;59.70
6627;DHT22;3349;49.830;8.748;2022-07-29T04:46:00;17.10;59.80
6627;DHT22;3349;49.830;8.748;2022-07-29T04:48:29;17.10;60.00
6627;DHT22;3349;49.830;8.748;2022-07-29T04:50:56;17.10;60.90
6627;DHT22;3349;49.830;8.748;2022-07-29T04:53:22;17.20;61.20
6627;DHT22;3349;49.830;8.748;2022-07-29T04:55:49;17.20;60.90
6627;DHT22;3349;49.830;8.748;2022-07-29T04:58:16;17.20;60.80
6627;DHT22;3349;49.830;8.748;2022-07-29T05:00:43;17.20;60.10
6627;DHT22;3349;49.830;8.748;2022-07-29T05:03:10;17.20;60.10
6627;DHT22;3349;49.830;8.748;2022-07-29T05:05:38;17.20;59.80
6627;DHT22;3349;49.830;8.748;2022-07-29T05:08:06;17.30;60.20
6627;DHT22;3349;49.830;8.748;2022-07-29T05:10:32;17.30;60.20
6627;DHT22;3349;49.830;8.748;2022-07-29T05:13:03;17.40;60.40
6627;DHT22;3349;49.830;8.748;2022-07-29T05:15:31;17.40;61.00
6627;DHT22;3349;49.830;8.748;2022-07-29T05:17:58;17.40;60.30
6627;DHT22;3349;49.830;8.748;2022-07-29T05:20:25;17.40;59.60
6627;DHT22;3349;49.830;8.748;2022-07-29T05:22:55;17.50;59.70
6627;DHT22;3349;49.830;8.748;2022-07-29T05:25:22;17.40;59.80
6627;DHT22;3349;49.830;8.748;2022-07-29T05:27:48;17.50;60.40
6627;DHT22;3349;49.830;8.748;2022-07-29T05:30:15;17.40;61.10
6627;DHT22;3349;49.830;8.748;2022-07-29T05:32:42;17.50;61.40
6627;DHT22;3349;49.830;8.748;2022-07-29T05:35:09;17.60;62.10
6627;DHT22;3349;49.830;8.748;2022-07-29T05:37:37;17.70;63.50
6627;DHT22;3349;49.830;8.748;2022-07-29T05:40:06;17.80;62.70
6627;DHT22;3349;49.830;8.748;2022-07-29T05:42:33;17.90;61.00
6627;DHT22;3349;49.830;8.748;2022-07-29T05:45:01;18.00;59.90
6627;DHT22;3349;49.830;8.748;2022-07-29T05:47:28;18.00;59.50
6627;DHT22;3349;49.830;8.748;2022-07-29T05:49:55;18.00;59.50
6627;DHT22;3349;49.830;8.748;2022-07-29T05:52:21;18.10;59.50
6627;DHT22;3349;49.830;8.748;2022-07-29T05:54:48;18.10;58.60
6627;DHT22;3349;49.830;8.748;2022-07-29T05:57:17;18.20;58.20
6627;DHT22;3349;49.830;8.748;2022-07-29T05:59:44;18.20;57.80
6627;DHT22;3349;49.830;8.748;2022-07-29T06:02:11;18.40;53.80
6627;DHT22;3349;49.830;8.748;2022-07-29T06:04:38;18.50;54.10
6627;DHT22;3349;49.830;8.748;2022-07-29T06:07:05;18.60;54.50
6627;DHT22;3349;49.830;8.748;2022-07-29T06:09:32;18.60;54.10
6627;DHT22;3349;49.830;8.748;2022-07-29T06:11:59;18.70;54.40
6627;DHT22;3349;49.830;8.748;2022-07-29T06:14:27;18.80;54.10
6627;DHT22;3349;49.830;8.748;2022-07-29T06:16:54;18.90;53.90
6627;DHT22;3349;49.830;8.748;2022-07-29T06:19:21;18.90;53.60
6627;DHT22;3349;49.830;8.748;2022-07-29T06:21:48;19.10;53.70
6627;DHT22;3349;49.830;8.748;2022-07-29T06:24:15;19.20;52.00
6627;DHT22;3349;49.830;8.748;2022-07-29T06:26:42;19.30;51.70
6627;DHT22;3349;49.830;8.748;2022-07-29T06:29:09;19.40;51.30
6627;DHT22;3349;49.830;8.748;2022-07-29T06:31:38;19.50;51.30
6627;DHT22;3349;49.830;8.748;2022-07-29T06:34:05;19.60;51.20
6627;DHT22;3349;49.830;8.748;2022-07-29T06:36:34;19.70;50.50
6627;DHT22;3349;49.830;8.748;2022-07-29T06:39:04;19.90;49.50
6627;DHT22;3349;49.830;8.748;2022-07-29T06:41:30;20.10;49.80
6627;DHT22;3349;49.830;8.748;2022-07-29T06:43:57;20.20;49.50
6627;DHT22;3349;49.830;8.748;2022-07-29T06:46:24;20.40;48.50
6627;DHT22;3349;49.830;8.748;2022-07-29T06:48:52;20.60;48.10
6627;DHT22;3349;49.830;8.748;2022-07-29T06:51:19;20.80;46.60
6627;DHT22;3349;49.830;8.748;2022-07-29T06:53:46;21.00;46.00
6627;DHT22;3349;49.830;8.748;2022-07-29T06:56:13;21.30;44.50
6627;DHT22;3349;49.830;8.748;2022-07-29T06:58:40;21.40;44.10
6627;DHT22;3349;49.830;8.748;2022-07-29T07:01:07;21.50;43.80
6627;DHT22;3349;49.830;8.748;2022-07-29T07:03:34;21.50;44.20
6627;DHT22;3349;49.830;8.748;2022-07-29T07:06:02;21.60;44.10
6627;DHT22;3349;49.830;8.748;2022-07-29T07:08:29;21.60;44.20
6627;DHT22;3349;49.830;8.748;2022-07-29T07:10:55;21.50;44.80
6627;DHT22;3349;49.830;8.748;2022-07-29T07:13:22;21.50;44.40
6627;DHT22;3349;49.830;8.748;2022-07-29T07:15:49;21.60;44.20
6627;DHT22;3349;49.830;8.748;2022-07-29T07:18:17;21.60;45.20
6627;DHT22;3349;49.830;8.748;2022-07-29T07:20:45;21.50;45.20
6627;DHT22;3349;49.830;8.748;2022-07-29T07:23:13;21.70;44.70
6627;DHT22;3349;49.830;8.748;2022-07-29T07:25:39;21.80;44.70
6627;DHT22;3349;49.830;8.748;2022-07-29T07:28:07;21.90;44.70
6627;DHT22;3349;49.830;8.748;2022-07-29T07:30:34;22.10;43.80
6627;DHT22;3349;49.830;8.748;2022-07-29T07:33:01;22.30;42.70
6627;DHT22;3349;49.830;8.748;2022-07-29T07:35:28;22.60;42.90
6627;DHT22;3349;49.830;8.748;2022-07-29T07:37:55;22.70;42.90
6627;DHT22;3349;49.830;8.748;2022-07-29T07:40:23;23.00;42.60
6627;DHT22;3349;49.830;8.748;2022-07-29T07:42:50;23.70;41.10
6627;DHT22;3349;49.830;8.748;2022-07-29T07:45:18;24.20;39.60
6627;DHT22;3349;49.830;8.748;2022-07-29T07:47:45;25.10;38.70
6627;DHT22;3349;49.830;8.748;2022-07-29T07:50:12;26.10;36.80
6627;DHT22;3349;49.830;8.748;2022-07-29T07:52:47;26.80;34.30
6627;DHT22;3349;49.830;8.748;2022-07-29T07:55:14;27.80;32.90
6627;DHT22;3349;49.830;8.748;2022-07-29T07:57:42;28.50;31.80
6627;DHT22;3349;49.830;8.748;2022-07-29T08:00:10;28.80;30.10
6627;DHT22;3349;49.830;8.748;2022-07-29T08:02:37;29.10;30.40
6627;DHT22;3349;49.830;8.748;2022-07-29T08:05:05;29.80;29.80
6627;DHT22;3349;49.830;8.748;2022-07-29T08:07:32;29.90;29.90
6627;DHT22;3349;49.830;8.748;2022-07-29T08:09:59;30.20;29.00
6627;DHT22;3349;49.830;8.748;2022-07-29T08:12:25;30.30;29.30
6627;DHT22;3349;49.830;8.748;2022-07-29T08:14:54;30.10;29.30
6627;DHT22;3349;49.830;8.748;2022-07-29T08:17:20;29.80;29.80
6627;DHT22;3349;49.830;8.748;2022-07-29T08:19:47;29.30;30.00
6627;DHT22;3349;49.830;8.748;2022-07-29T08:22:15;29.50;30.20
6627;DHT22;3349;49.830;8.748;2022-07-29T08:24:41;29.40;31.00
6627;DHT22;3349;49.830;8.748;2022-07-29T08:27:18;30.60;29.60
6627;DHT22;3349;49.830;8.748;2022-07-29T08:29:45;31.00;28.30
6627;DHT22;3349;49.830;8.748;2022-07-29T08:32:13;30.60;28.70
6627;DHT22;3349;49.830;8.748;2022-07-29T08:34:40;31.00;28.80
6627;DHT22;3349;49.830;8.748;2022-07-29T08:37:07;31.40;28.50
6627;DHT22;3349;49.830;8.748;2022-07-29T08:39:33;32.60;28.00
6627;DHT22;3349;49.830;8.748;2022-07-29T08:42:00;33.10;26.40
6627;DHT22;3349;49.830;8.748;2022-07-29T08:44:27;33.20;26.70
6627;DHT22;3349;49.830;8.748;2022-07-29T08:46:54;32.80;27.80
6627;DHT22;3349;49.830;8.748;2022-07-29T08:49:22;32.70;27.30
6627;DHT22;3349;49.830;8.748;2022-07-29T08:51:49;33.10;27.10
6627;DHT22;3349;49.830;8.748;2022-07-29T08:54:17;32.50;26.80
6627;DHT22;3349;49.830;8.748;2022-07-29T08:56:48;31.70;28.60
6627;DHT22;3349;49.830;8.748;2022-07-29T08:59:16;32.20;28.10
6627;DHT22;3349;49.830;8.748;2022-07-29T09:01:46;31.90;28.50
6627;DHT22;3349;49.830;8.748;2022-07-29T09:04:15;31.70;28.70
6627;DHT22;3349;49.830;8.748;2022-07-29T09:06:47;31.40;29.30
6627;DHT22;3349;49.830;8.748;2022-07-29T09:09:14;32.30;29.20
6627;DHT22;3349;49.830;8.748;2022-07-29T09:11:42;32.90;27.80
6627;DHT22;3349;49.830;8.748;2022-07-29T09:14:11;33.50;27.00
6627;DHT22;3349;49.830;8.748;2022-07-29T09:16:49;33.20;27.40
6627;DHT22;3349;49.830;8.748;2022-07-29T09:19:24;32.90;27.30
6627;DHT22;3349;49.830;8.748;2022-07-29T09:21:53;32.50;28.00
6627;DHT22;3349;49.830;8.748;2022-07-29T09:24:37;32.10;28.40
6627;DHT22;3349;49.830;8.748;2022-07-29T09:27:10;31.70;29.00
6627;DHT22;3349;49.830;8.748;2022-07-29T09:29:38;31.50;29.40
6627;DHT22;3349;49.830;8.748;2022-07-29T09:32:08;31.50;29.30
6627;DHT22;3349;49.830;8.748;2022-07-29T09:34:36;30.80;30.30
6627;DHT22;3349;49.830;8.748;2022-07-29T09:37:04;31.50;29.80
6627;DHT22;3349;49.830;8.748;2022-07-29T09:39:33;31.60;29.30
6627;DHT22;3349;49.830;8.748;2022-07-29T09:42:01;32.10;29.20
6627;DHT22;3349;49.830;8.748;2022-07-29T09:44:41;32.40;28.60
6627;DHT22;3349;49.830;8.748;2022-07-29T09:47:08;33.00;27.40
6627;DHT22;3349;49.830;8.748;2022-07-29T09:49:50;33.90;26.70
6627;DHT22;3349;49.830;8.748;2022-07-29T09:52:18;35.30;25.40
6627;DHT22;3349;49.830;8.748;2022-07-29T09:54:45;35.70;25.20
6627;DHT22;3349;49.830;8.748;2022-07-29T09:57:22;38.00;23.30
6627;DHT22;3349;49.830;8.748;2022-07-29T09:59:56;37.40;22.40
6627;DHT22;3349;49.830;8.748;2022-07-29T10:02:27;37.00;22.60
6627;DHT22;3349;49.830;8.748;2022-07-29T10:04:55;38.80;21.70
6627;DHT22;3349;49.830;8.748;2022-07-29T10:07:24;38.50;21.10
6627;DHT22;3349;49.830;8.748;2022-07-29T10:09:53;37.30;22.20
6627;DHT22;3349;49.830;8.748;2022-07-29T10:12:21;38.60;21.70
6627;DHT22;3349;49.830;8.748;2022-07-29T10:14:49;37.10;22.60
6627;DHT22;3349;49.830;8.748;2022-07-29T10:17:16;38.30;22.80
6627;DHT22;3349;49.830;8.748;2022-07-29T10:19:43;38.80;21.80
6627;DHT22;3349;49.830;8.748;2022-07-29T10:22:10;39.40;21.70
6627;DHT22;3349;49.830;8.748;2022-07-29T10:24:39;40.50;20.60
6627;DHT22;3349;49.830;8.748;2022-07-29T10:27:07;41.10;20.00
6627;DHT22;3349;49.830;8.748;2022-07-29T10:29:34;41.40;19.60
6627;DHT22;3349;49.830;8.748;2022-07-29T10:32:20;40.80;19.10
6627;DHT22;3349;49.830;8.748;2022-07-29T10:35:01;38.60;20.80
6627;DHT22;3349;49.830;8.748;2022-07-29T10:37:37;38.60;21.50
6627;DHT22;3349;49.830;8.748;2022-07-29T10:40:17;38.40;21.30
6627;DHT22;3349;49.830;8.748;2022-07-29T10:43:16;37.70;22.10
6627;DHT22;3349;49.830;8.748;2022-07-29T10:45:45;37.40;22.80
6627;DHT22;3349;49.830;8.748;2022-07-29T10:48:13;38.50;22.50
6627;DHT22;3349;49.830;8.748;2022-07-29T10:50:54;38.20;21.70
6627;DHT22;3349;49.830;8.748;2022-07-29T10:53:21;38.20;21.70
6627;DHT22;3349;49.830;8.748;2022-07-29T10:55:51;39.80;20.50
6627;DHT22;3349;49.830;8.748;2022-07-29T10:58:19;39.00;20.80
6627;DHT22;3349;49.830;8.748;2022-07-29T11:00:47;39.00;21.20
6627;DHT22;3349;49.830;8.748;2022-07-29T11:03:43;39.10;20.80
6627;DHT22;3349;49.830;8.748;2022-07-29T11:06:10;39.60;20.50
6627;DHT22;3349;49.830;8.748;2022-07-29T11:08:37;39.00;21.20
6627;DHT22;3349;49.830;8.748;2022-07-29T11:11:35;40.00;20.80
6627;DHT22;3349;49.830;8.748;2022-07-29T11:14:04;40.20;20.50
6627;DHT22;3349;49.830;8.748;2022-07-29T11:16:58;39.70;20.70
6627;DHT22;3349;49.830;8.748;2022-07-29T11:19:26;38.60;21.60
6627;DHT22;3349;49.830;8.748;2022-07-29T11:21:52;38.30;22.20
6627;DHT22;3349;49.830;8.748;2022-07-29T11:24:21;37.60;22.90
6627;DHT22;3349;49.830;8.748;2022-07-29T11:27:13;37.20;23.70
6627;DHT22;3349;49.830;8.748;2022-07-29T11:29:51;36.10;24.40
6627;DHT22;3349;49.830;8.748;2022-07-29T11:32:19;36.00;24.40
6627;DHT22;3349;49.830;8.748;2022-07-29T11:34:47;36.60;23.80
6627;DHT22;3349;49.830;8.748;2022-07-29T11:37:21;36.80;23.70
6627;DHT22;3349;49.830;8.748;2022-07-29T11:40:08;36.60;23.40
6627;DHT22;3349;49.830;8.748;2022-07-29T11:42:44;36.50;23.40
6627;DHT22;3349;49.830;8.748;2022-07-29T11:45:13;36.50;24.10
6627;DHT22;3349;49.830;8.748;2022-07-29T11:47:46;37.30;23.50
6627;DHT22;3349;49.830;8.748;2022-07-29T11:50:15;37.30;23.00
6627;DHT22;3349;49.830;8.748;2022-07-29T11:52:44;37.10;23.70
6627;DHT22;3349;49.830;8.748;2022-07-29T11:55:13;37.50;23.10
6627;DHT22;3349;49.830;8.748;2022-07-29T11:57:49;38.00;22.80
6627;DHT22;3349;49.830;8.748;2022-07-29T12:00:31;37.80;22.30
6627;DHT22;3349;49.830;8.748;2022-07-29T12:03:02;37.70;22.50
6627;DHT22;3349;49.830;8.748;2022-07-29T12:05:38;38.80;22.00
6627;DHT22;3349;49.830;8.748;2022-07-29T12:08:11;39.40;21.80
6627;DHT22;3349;49.830;8.748;2022-07-29T12:10:38;38.50;21.40
6627;DHT22;3349;49.830;8.748;2022-07-29T12:13:07;38.10;22.10
6627;DHT22;3349;49.830;8.748;2022-07-29T12:15:35;38.50;22.60
6627;DHT22;3349;49.830;8.748;2022-07-29T12:18:16;38.40;21.90
6627;DHT22;3349;49.830;8.748;2022-07-29T12:20:44;39.20;21.40
6627;DHT22;3349;49.830;8.748;2022-07-29T12:23:11;39.70;21.20
6627;DHT22;3349;49.830;8.748;2022-07-29T12:25:39;39.40;21.10
6627;DHT22;3349;49.830;8.748;2022-07-29T12:28:10;39.20;21.40
6627;DHT22;3349;49.830;8.748;2022-07-29T12:30:42;39.90;20.90
6627;DHT22;3349;49.830;8.748;2022-07-29T12:33:18;39.40;20.90
6627;DHT22;3349;49.830;8.748;2022-07-29T12:35:47;39.50;20.50
6627;DHT22;3349;49.830;8.748;2022-07-29T12:38:16;39.10;20.60
6627;DHT22;3349;49.830;8.748;2022-07-29T12:40:44;38.40;20.90
6627;DHT22;3349;49.830;8.748;2022-07-29T12:43:14;37.60;21.80
6627;DHT22;3349;49.830;8.748;2022-07-29T12:45:43;38.20;21.70
6627;DHT22;3349;49.830;8.748;2022-07-29T12:48:10;37.50;21.90
6627;DHT22;3349;49.830;8.748;2022-07-29T12:50:52;37.20;22.70
6627;DHT22;3349;49.830;8.748;2022-07-29T12:53:19;36.30;23.00
6627;DHT22;3349;49.830;8.748;2022-07-29T12:55:48;36.00;23.60
6627;DHT22;3349;49.830;8.748;2022-07-29T12:58:31;36.60;23.10
6627;DHT22;3349;49.830;8.748;2022-07-29T13:01:07;37.70;22.70
6627;DHT22;3349;49.830;8.748;2022-07-29T13:03:50;36.60;22.40
6627;DHT22;3349;49.830;8.748;2022-07-29T13:06:31;36.60;22.20
6627;DHT22;3349;49.830;8.748;2022-07-29T13:09:09;36.70;21.90
6627;DHT22;3349;49.830;8.748;2022-07-29T13:11:37;36.10;22.20
6627;DHT22;3349;49.830;8.748;2022-07-29T13:14:07;35.60;22.60
6627;DHT22;3349;49.830;8.748;2022-07-29T13:16:35;35.60;23.50
6627;DHT22;3349;49.830;8.748;2022-07-29T13:19:09;35.80;23.40
6627;DHT22;3349;49.830;8.748;2022-07-29T13:21:38;36.20;23.60
6627;DHT22;3349;49.830;8.748;2022-07-29T13:24:06;36.30;22.70
6627;DHT22;3349;49.830;8.748;2022-07-29T13:26:33;36.20;22.20
6627;DHT22;3349;49.830;8.748;2022-07-29T13:28:59;36.10;23.10
6627;DHT22;3349;49.830;8.748;2022-07-29T13:31:28;35.60;23.10
6627;DHT22;3349;49.830;8.748;2022-07-29T13:33:54;35.50;22.90
6627;DHT22;3349;49.830;8.748;2022-07-29T13:36:21;35.40;23.40
6627;DHT22;3349;49.830;8.748;2022-07-29T13:38:48;34.90;24.00
6627;DHT22;3349;49.830;8.748;2022-07-29T13:41:15;34.50;24.90
6627;DHT22;3349;49.830;8.748;2022-07-29T13:43:42;34.10;24.50
6627;DHT22;3349;49.830;8.748;2022-07-29T13:46:09;33.90;24.60
6627;DHT22;3349;49.830;8.748;2022-07-29T13:48:37;34.00;24.80
6627;DHT22;3349;49.830;8.748;2022-07-29T13:51:04;33.40;24.40
6627;DHT22;3349;49.830;8.748;2022-07-29T13:53:30;33.00;24.30
6627;DHT22;3349;49.830;8.748;2022-07-29T13:55:58;32.40;24.30
6627;DHT22;3349;49.830;8.748;2022-07-29T13:58:25;32.30;25.20
6627;DHT22;3349;49.830;8.748;2022-07-29T14:00:52;32.20;25.10
6627;DHT22;3349;49.830;8.748;2022-07-29T14:03:19;32.00;25.80
6627;DHT22;3349;49.830;8.748;2022-07-29T14:05:47;32.10;26.20
6627;DHT22;3349;49.830;8.748;2022-07-29T14:08:13;31.90;26.60
6627;DHT22;3349;49.830;8.748;2022-07-29T14:10:40;31.60;27.20
6627;DHT22;3349;49.830;8.748;2022-07-29T14:13:07;31.40;27.70
6627;DHT22;3349;49.830;8.748;2022-07-29T14:15:34;31.30;28.20
6627;DHT22;3349;49.830;8.748;2022-07-29T14:18:01;31.10;28.30
6627;DHT22;3349;49.830;8.748;2022-07-29T14:20:28;30.90;28.70
6627;DHT22;3349;49.830;8.748;2022-07-29T14:22:57;30.60;29.00
6627;DHT22;3349;49.830;8.748;2022-07-29T14:25:24;30.50;29.30
6627;DHT22;3349;49.830;8.748;2022-07-29T14:27:50;30.50;29.30
6627;DHT22;3349;49.830;8.748;2022-07-29T14:30:18;30.40;29.50
6627;DHT22;3349;49.830;8.748;2022-07-29T14:32:46;30.30;29.60
6627;DHT22;3349;49.830;8.748;2022-07-29T14:35:12;30.20;29.60
6627;DHT22;3349;49.830;8.748;2022-07-29T14:37:40;30.00;29.90
6627;DHT22;3349;49.830;8.748;2022-07-29T14:40:10;29.80;30.30
6627;DHT22;3349;49.830;8.748;2022-07-29T14:42:37;29.70;29.50
6627;DHT22;3349;49.830;8.748;2022-07-29T14:45:05;29.50;29.70
6627;DHT22;3349;49.830;8.748;2022-07-29T14:47:32;29.40;29.60
6627;DHT22;3349;49.830;8.748;2022-07-29T14:49:59;29.30;29.60
6627;DHT22;3349;49.830;8.748;2022-07-29T14:52:26;29.30;30.40
6627;DHT22;3349;49.830;8.748;2022-07-29T14:54:53;29.20;30.70
6627;DHT22;3349;49.830;8.748;2022-07-29T14:57:21;29.20;30.60
6627;DHT22;3349;49.830;8.748;2022-07-29T14:59:48;29.20;31.30
6627;DHT22;3349;49.830;8.748;2022-07-29T15:02:14;29.20;31.50
6627;DHT22;3349;49.830;8.748;2022-07-29T15:04:41;29.20;32.30
6627;DHT22;3349;49.830;8.748;2022-07-29T15:07:09;29.10;31.70
6627;DHT22;3349;49.830;8.748;2022-07-29T15:09:35;29.20;32.10
6627;DHT22;3349;49.830;8.748;2022-07-29T15:12:03;29.30;32.30
6627;DHT22;3349;49.830;8.748;2022-07-29T15:14:31;29.30;32.10
6627;DHT22;3349;49.830;8.748;2022-07-29T15:16:58;29.40;32.30
6627;DHT22;3349;49.830;8.748;2022-07-29T15:19:25;29.50;32.20
6627;DHT22;3349;49.830;8.748;2022-07-29T15:21:52;29.60;31.60
6627;DHT22;3349;49.830;8.748;2022-07-29T15:24:19;29.90;31.40
6627;DHT22;3349;49.830;8.748;2022-07-29T15:26:46;30.20;31.40
6627;DHT22;3349;49.830;8.748;2022-07-29T15:29:14;30.20;30.20
6627;DHT22;3349;49.830;8.748;2022-07-29T15:31:42;30.20;30.00
6627;DHT22;3349;49.830;8.748;2022-07-29T15:34:10;30.40;29.90
6627;DHT22;3349;49.830;8.748;2022-07-29T15:36:37;30.70;29.10
6627;DHT22;3349;49.830;8.748;2022-07-29T15:39:04;31.10;28.80
6627;DHT22;3349;49.830;8.748;2022-07-29T15:41:32;31.10;28.70
6627;DHT22;3349;49.830;8.748;2022-07-29T15:44:00;30.80;28.80
6627;DHT22;3349;49.830;8.748;2022-07-29T15:46:27;30.70;32.30
6627;DHT22;3349;49.830;8.748;2022-07-29T15:49:12;30.40;33.50
6627;DHT22;3349;49.830;8.748;2022-07-29T15:51:40;29.90;33.80
6627;DHT22;3349;49.830;8.748;2022-07-29T15:54:08;29.50;34.50
6627;DHT22;3349;49.830;8.748;2022-07-29T15:56:34;29.00;35.30
6627;DHT22;3349;49.830;8.748;2022-07-29T15:59:01;28.70;36.40
6627;DHT22;3349;49.830;8.748;2022-07-29T16:01:28;28.50;37.00
6627;DHT22;3349;49.830;8.748;2022-07-29T16:03:55;28.00;37.50
6627;DHT22;3349;49.830;8.748;2022-07-29T16:06:25;28.00;38.10
6627;DHT22;3349;49.830;8.748;2022-07-29T16:08:51;28.00;38.30
6627;DHT22;3349;49.830;8.748;2022-07-29T16:11:20;28.00;39.00
6627;DHT22;3349;49.830;8.748;2022-07-29T16:13:46;27.90;39.10
6627;DHT22;3349;49.830;8.748;2022-07-29T16:16:13;27.70;39.10
6627;DHT22;3349;49.830;8.748;2022-07-29T16:18:41;27.80;39.20